Time;durP1;ratioP1;P1;durP2;ratioP2;P2;SDS_P1;SDS_P2;PMS_P1;PMS_P2;Temp;Humidity;BMP_temperature;BMP_pressure;BME280_temperature;BME280_humidity;BME280_pressure;Samples;Min_cycle;Max_cycle;Signal;HPM_P1;HPM_P2
2024/02/26 00:01:36;;;;;;;41.77;21.17;;;;;;;;;;5979609;24;20004;-68
2024/02/26 00:04:02;;;;;;;41.47;20.43;;;;;;;;;;5979864;24;20019;-69
2024/02/26 00:06:29;;;;;;;39.23;20.60;;;;;;;;;;5955159;24;20012;-70
2024/02/26 00:08:54;;;;;;;46.73;21.07;;;;;;;;;;5979499;24;20015;-70
2024/02/26 00:11:20;;;;;;;42.60;20.37;;;;;;;;;;5955171;24;20095;-70
2024/02/26 00:13:45;;;;;;;47.07;22.57;;;;;;;;;;5954874;24;20007;-70
2024/02/26 00:16:11;;;;;;;46.67;21.43;;;;;;;;;;5979161;24;20019;-70
2024/02/26 00:18:36;;;;;;;45.90;22.20;;;;;;;;;;5955010;24;20016;-70
2024/02/26 00:21:02;;;;;;;43.17;21.87;;;;;;;;;;5979483;24;20040;-69
2024/02/26 00:23:28;;;;;;;47.40;21.73;;;;;;;;;;5955066;24;20008;-70
2024/02/26 00:25:53;;;;;;;41.40;20.87;;;;;;;;;;5955103;24;20012;-69
2024/02/26 00:28:22;;;;;;;38.23;20.53;;;;;;;;;;5954428;24;20091;-71
2024/02/26 00:30:47;;;;;;;45.23;21.73;;;;;;;;;;5979785;24;20471;-70
2024/02/26 00:33:16;;;;;;;40.47;19.43;;;;;;;;;;5978609;24;20031;-70
2024/02/26 00:35:42;;;;;;;42.03;20.63;;;;;;;;;;5979560;24;20008;-70
2024/02/26 00:38:07;;;;;;;46.63;22.07;;;;;;;;;;5979159;24;20071;-70
2024/02/26 00:40:33;;;;;;;44.50;22.37;;;;;;;;;;5979445;24;20410;-70
2024/02/26 00:42:58;;;;;;;48.07;23.83;;;;;;;;;;5954086;24;20083;-70
2024/02/26 00:45:24;;;;;;;49.40;21.93;;;;;;;;;;5955132;24;20375;-71
2024/02/26 00:47:49;;;;;;;44.23;21.10;;;;;;;;;;5979586;24;20032;-70
2024/02/26 00:50:15;;;;;;;42.30;21.60;;;;;;;;;;5954400;24;20377;-70
2024/02/26 00:52:41;;;;;;;47.57;20.83;;;;;;;;;;5979438;23;20020;-71
2024/02/26 00:55:07;;;;;;;40.93;20.40;;;;;;;;;;5954510;24;20064;-71
2024/02/26 00:57:32;;;;;;;39.07;21.07;;;;;;;;;;5954878;24;20019;-72
2024/02/26 00:59:58;;;;;;;51.40;23.30;;;;;;;;;;5954162;24;20023;-71
2024/02/26 01:02:24;;;;;;;51.90;24.20;;;;;;;;;;5953515;24;20016;-71
2024/02/26 01:04:50;;;;;;;50.07;23.47;;;;;;;;;;5930940;24;20457;-69
2024/02/26 01:07:15;;;;;;;55.83;26.13;;;;;;;;;;5979132;24;20363;-70
2024/02/26 01:09:42;;;;;;;55.00;24.90;;;;;;;;;;5953905;24;20027;-69
2024/02/26 01:12:08;;;;;;;60.00;26.70;;;;;;;;;;5954505;24;20008;-69
2024/02/26 01:14:34;;;;;;;50.93;24.30;;;;;;;;;;5980108;24;20405;-71
2024/02/26 01:16:59;;;;;;;50.60;24.03;;;;;;;;;;5978714;24;20413;-70
2024/02/26 01:19:25;;;;;;;50.80;24.07;;;;;;;;;;5980761;24;20008;-70
2024/02/26 01:21:50;;;;;;;47.63;24.83;;;;;;;;;;5956211;24;20032;-70
2024/02/26 01:24:16;;;;;;;51.73;24.20;;;;;;;;;;5979378;24;20004;-69
2024/02/26 01:26:42;;;;;;;56.20;25.53;;;;;;;;;;5954380;24;20450;-69
2024/02/26 01:29:07;;;;;;;54.80;23.83;;;;;;;;;;5978861;24;20343;-72
2024/02/26 01:31:33;;;;;;;66.03;26.70;;;;;;;;;;5954709;24;20454;-69
2024/02/26 01:33:58;;;;;;;57.80;25.57;;;;;;;;;;5979494;24;20004;-71
2024/02/26 01:36:24;;;;;;;52.73;25.10;;;;;;;;;;5978872;24;20064;-69
2024/02/26 01:38:50;;;;;;;63.47;26.37;;;;;;;;;;5979234;24;20004;-69
2024/02/26 01:41:15;;;;;;;57.37;25.60;;;;;;;;;;5978590;24;20442;-69
2024/02/26 01:43:41;;;;;;;57.63;24.93;;;;;;;;;;5953648;24;20079;-68
2024/02/26 01:46:13;;;;;;;59.53;26.43;;;;;;;;;;5978551;24;20106;-70
2024/02/26 01:48:41;;;;;;;54.43;24.47;;;;;;;;;;5953828;24;20015;-70
2024/02/26 01:51:07;;;;;;;57.20;24.80;;;;;;;;;;5978746;23;20079;-70
2024/02/26 01:53:32;;;;;;;61.77;23.73;;;;;;;;;;5954328;24;20039;-70
2024/02/26 01:55:58;;;;;;;48.80;21.70;;;;;;;;;;5978958;24;20014;-70
2024/02/26 01:58:24;;;;;;;53.80;22.97;;;;;;;;;;5953950;24;20004;-69
2024/02/26 02:00:49;;;;;;;55.23;24.37;;;;;;;;;;5954254;24;20027;-69
2024/02/26 02:03:15;;;;;;;53.27;23.63;;;;;;;;;;5953684;24;20437;-71
2024/02/26 02:05:41;;;;;;;52.93;20.93;;;;;;;;;;5979084;24;20008;-70
2024/02/26 02:08:08;;;;;;;49.73;22.93;;;;;;;;;;5978275;24;20409;-71
2024/02/26 02:10:35;;;;;;;51.43;23.67;;;;;;;;;;5953581;24;20012;-68
2024/02/26 02:13:00;;;;;;;49.23;23.93;;;;;;;;;;5978365;24;20364;-69
2024/02/26 02:15:26;;;;;;;49.63;22.00;;;;;;;;;;5978175;24;20024;-70
2024/02/26 02:17:52;;;;;;;53.77;22.23;;;;;;;;;;5953512;24;20146;-70
2024/02/26 02:20:18;;;;;;;52.73;22.70;;;;;;;;;;5953015;24;20379;-71
2024/02/26 02:22:45;;;;;;;50.40;22.90;;;;;;;;;;5978674;24;20008;-70
2024/02/26 02:25:10;;;;;;;49.67;22.57;;;;;;;;;;5953430;24;20345;-70
2024/02/26 02:27:36;;;;;;;45.07;21.40;;;;;;;;;;5954060;24;20012;-70
2024/02/26 02:30:03;;;;;;;49.83;21.43;;;;;;;;;;5978617;24;20095;-72
2024/02/26 02:32:29;;;;;;;46.13;21.60;;;;;;;;;;5954115;24;20015;-70
2024/02/26 02:34:55;;;;;;;44.17;21.70;;;;;;;;;;5978567;24;20330;-69
2024/02/26 02:37:22;;;;;;;45.20;20.43;;;;;;;;;;5978641;24;20059;-71
2024/02/26 02:39:48;;;;;;;40.87;19.40;;;;;;;;;;5978672;24;20379;-70
2024/02/26 02:42:13;;;;;;;43.17;20.93;;;;;;;;;;5953620;24;20004;-71
2024/02/26 02:44:39;;;;;;;45.13;21.37;;;;;;;;;;5953642;24;20103;-70
2024/02/26 02:47:05;;;;;;;45.30;20.83;;;;;;;;;;5978257;24;20004;-69
2024/02/26 02:49:30;;;;;;;46.23;20.90;;;;;;;;;;5978309;23;20075;-70
2024/02/26 02:51:57;;;;;;;42.37;21.13;;;;;;;;;;5953309;24;20024;-70
2024/02/26 02:54:23;;;;;;;48.23;21.37;;;;;;;;;;5953322;24;20383;-69
2024/02/26 02:56:48;;;;;;;47.03;21.17;;;;;;;;;;5953605;24;20015;-69
2024/02/26 02:59:14;;;;;;;43.93;20.00;;;;;;;;;;5953162;24;20008;-70
2024/02/26 03:01:40;;;;;;;44.00;21.17;;;;;;;;;;5978372;24;20010;-70
2024/02/26 03:04:05;;;;;;;48.90;20.13;;;;;;;;;;5953487;24;20046;-71
2024/02/26 03:06:31;;;;;;;44.63;21.07;;;;;;;;;;5953396;24;20004;-71
2024/02/26 03:08:56;;;;;;;41.53;20.50;;;;;;;;;;5978218;24;20008;-70
2024/02/26 03:11:22;;;;;;;42.50;19.70;;;;;;;;;;5978398;24;20012;-69
2024/02/26 03:13:47;;;;;;;48.33;20.53;;;;;;;;;;5978052;24;20335;-71
2024/02/26 03:16:13;;;;;;;44.07;21.07;;;;;;;;;;5952749;24;20004;-70
2024/02/26 03:18:40;;;;;;;41.43;20.17;;;;;;;;;;5978129;24;20363;-70
2024/02/26 03:21:06;;;;;;;43.63;21.00;;;;;;;;;;5953135;24;20012;-70
2024/02/26 03:23:32;;;;;;;42.30;18.97;;;;;;;;;;5953409;24;20012;-69
2024/02/26 03:25:58;;;;;;;47.60;21.60;;;;;;;;;;5953319;24;20012;-70
2024/02/26 03:28:23;;;;;;;44.27;20.93;;;;;;;;;;5953315;24;20011;-69
2024/02/26 03:30:49;;;;;;;42.87;20.80;;;;;;;;;;5953080;24;20016;-69
2024/02/26 03:33:14;;;;;;;45.17;21.63;;;;;;;;;;5979808;24;20388;-70
2024/02/26 03:35:40;;;;;;;48.17;21.10;;;;;;;;;;5980316;24;20012;-69
2024/02/26 03:38:06;;;;;;;48.70;22.33;;;;;;;;;;5980234;24;20268;-72
2024/02/26 03:40:32;;;;;;;43.93;20.67;;;;;;;;;;5955270;24;20043;-71
2024/02/26 03:42:58;;;;;;;42.90;21.17;;;;;;;;;;5980121;24;20015;-69
2024/02/26 03:45:23;;;;;;;49.70;21.43;;;;;;;;;;5980391;24;20011;-69
2024/02/26 03:47:49;;;;;;;47.63;21.23;;;;;;;;;;5980282;24;20011;-71
2024/02/26 03:50:14;;;;;;;51.53;22.43;;;;;;;;;;5980128;23;20084;-70
2024/02/26 03:52:40;;;;;;;48.27;20.87;;;;;;;;;;5980132;23;20016;-68
2024/02/26 03:55:05;;;;;;;53.10;24.50;;;;;;;;;;5955178;24;20016;-70
2024/02/26 03:57:31;;;;;;;43.47;20.50;;;;;;;;;;5954755;24;20033;-70
2024/02/26 03:59:56;;;;;;;58.33;23.57;;;;;;;;;;5956366;24;20346;-69
2024/02/26 04:02:22;;;;;;;59.33;24.70;;;;;;;;;;5980192;24;20043;-70
2024/02/26 04:04:49;;;;;;;55.13;24.07;;;;;;;;;;5956489;24;20020;-70
2024/02/26 04:07:14;;;;;;;58.60;24.57;;;;;;;;;;5984234;24;20011;-71
2024/02/26 04:09:40;;;;;;;51.60;23.20;;;;;;;;;;5981690;24;20004;-70
2024/02/26 04:12:06;;;;;;;55.20;24.53;;;;;;;;;;5957931;24;20012;-70
2024/02/26 04:14:31;;;;;;;64.50;26.30;;;;;;;;;;5958114;24;20047;-70
2024/02/26 04:16:57;;;;;;;65.33;25.33;;;;;;;;;;5959963;24;20010;-68
2024/02/26 04:19:22;;;;;;;58.97;23.20;;;;;;;;;;5980029;24;20428;-70
2024/02/26 04:21:48;;;;;;;54.60;24.97;;;;;;;;;;5954664;24;20011;-69
2024/02/26 04:24:13;;;;;;;56.37;23.60;;;;;;;;;;5979447;24;20342;-70
2024/02/26 04:26:39;;;;;;;58.17;23.57;;;;;;;;;;5955032;24;20156;-69
2024/02/26 04:29:04;;;;;;;52.10;24.40;;;;;;;;;;5979501;24;20004;-70
2024/02/26 04:31:32;;;;;;;61.37;23.30;;;;;;;;;;5979344;24;20008;-70
2024/02/26 04:33:58;;;;;;;54.63;22.03;;;;;;;;;;5954625;24;20016;-70
2024/02/26 04:36:25;;;;;;;52.30;23.47;;;;;;;;;;5954035;24;20016;-70
2024/02/26 04:38:51;;;;;;;55.37;24.27;;;;;;;;;;5954588;24;20008;-70
2024/02/26 04:41:17;;;;;;;46.40;22.33;;;;;;;;;;5979689;24;20060;-70
2024/02/26 04:43:42;;;;;;;63.93;25.33;;;;;;;;;;5979051;24;20008;-69
2024/02/26 04:46:08;;;;;;;53.53;23.13;;;;;;;;;;5979392;24;20004;-69
2024/02/26 04:48:35;;;;;;;51.73;22.30;;;;;;;;;;5954428;24;20538;-71
2024/02/26 04:51:01;;;;;;;52.63;22.47;;;;;;;;;;5954454;23;20475;-70
2024/02/26 04:53:27;;;;;;;52.87;22.00;;;;;;;;;;5954389;24;20405;-69
2024/02/26 04:55:52;;;;;;;56.60;23.07;;;;;;;;;;5979608;24;20095;-69
2024/02/26 04:58:18;;;;;;;56.77;24.27;;;;;;;;;;5954369;24;20038;-71
2024/02/26 05:00:44;;;;;;;51.70;21.67;;;;;;;;;;5954446;24;20040;-69
2024/02/26 05:03:13;;;;;;;49.60;23.90;;;;;;;;;;5954562;24;20107;-70
2024/02/26 05:05:39;;;;;;;53.83;23.00;;;;;;;;;;5954435;24;20016;-71
2024/02/26 05:08:05;;;;;;;52.70;22.77;;;;;;;;;;5955309;24;20501;-70
2024/02/26 05:10:33;;;;;;;50.17;22.83;;;;;;;;;;5979615;24;20008;-71
2024/02/26 05:12:58;;;;;;;51.83;22.53;;;;;;;;;;5953909;24;20160;-68
2024/02/26 05:15:24;;;;;;;49.90;23.03;;;;;;;;;;5978629;24;20045;-70
2024/02/26 05:17:49;;;;;;;48.17;22.63;;;;;;;;;;5978853;24;20074;-70
2024/02/26 05:20:15;;;;;;;53.43;23.40;;;;;;;;;;5978571;24;20008;-70
2024/02/26 05:22:42;;;;;;;57.73;22.63;;;;;;;;;;5978967;24;20206;-70
2024/02/26 05:25:07;;;;;;;52.33;22.57;;;;;;;;;;5979736;24;20004;-70
2024/02/26 05:27:33;;;;;;;52.87;22.33;;;;;;;;;;5956297;24;20019;-68
2024/02/26 05:29:58;;;;;;;55.67;22.30;;;;;;;;;;5980815;24;20041;-70
2024/02/26 05:32:24;;;;;;;55.73;22.27;;;;;;;;;;5953934;24;20030;-70
2024/02/26 05:34:49;;;;;;;57.67;23.43;;;;;;;;;;5954277;24;20008;-70
2024/02/26 05:37:15;;;;;;;51.60;22.83;;;;;;;;;;5979307;24;20004;-69
2024/02/26 05:39:40;;;;;;;49.17;22.90;;;;;;;;;;5978990;24;20012;-70
2024/02/26 05:42:06;;;;;;;61.40;22.83;;;;;;;;;;5979020;24;20008;-70
2024/02/26 05:44:31;;;;;;;46.57;21.40;;;;;;;;;;5953740;24;20031;-71
2024/02/26 05:46:57;;;;;;;56.90;22.60;;;;;;;;;;5953899;24;20063;-70
2024/02/26 05:49:23;;;;;;;42.77;19.53;;;;;;;;;;5953845;23;20018;-69
2024/02/26 05:51:48;;;;;;;45.10;21.37;;;;;;;;;;5953859;23;20354;-69
2024/02/26 05:54:14;;;;;;;48.87;19.97;;;;;;;;;;5953356;23;20035;-69
2024/02/26 05:56:40;;;;;;;49.90;20.63;;;;;;;;;;5978820;24;20433;-69
2024/02/26 05:59:05;;;;;;;39.27;19.00;;;;;;;;;;5954179;24;20122;-69
2024/02/26 06:01:31;;;;;;;42.23;20.07;;;;;;;;;;5978800;24;20004;-70
2024/02/26 06:03:56;;;;;;;42.00;19.47;;;;;;;;;;5978955;24;20030;-70
2024/02/26 06:06:23;;;;;;;44.00;18.93;;;;;;;;;;5978210;24;20341;-72
2024/02/26 06:08:49;;;;;;;39.73;17.03;;;;;;;;;;5951889;24;20036;-72
2024/02/26 06:11:15;;;;;;;39.00;18.57;;;;;;;;;;5976652;24;20063;-69
2024/02/26 06:13:40;;;;;;;36.63;17.90;;;;;;;;;;5948776;24;20379;-70
2024/02/26 06:16:08;;;;;;;38.47;17.67;;;;;;;;;;5978383;24;20015;-71
2024/02/26 06:18:34;;;;;;;39.30;17.57;;;;;;;;;;5978196;24;20008;-70
2024/02/26 06:21:01;;;;;;;35.87;16.30;;;;;;;;;;5978546;24;20012;-70
2024/02/26 06:23:29;;;;;;;34.97;16.63;;;;;;;;;;5953524;24;20039;-71
2024/02/26 06:25:54;;;;;;;35.50;17.10;;;;;;;;;;5953789;24;20090;-71
2024/02/26 06:28:19;;;;;;;34.43;16.23;;;;;;;;;;5976424;24;20042;-70
2024/02/26 06:30:46;;;;;;;34.57;16.70;;;;;;;;;;5953036;24;20016;-69
2024/02/26 06:33:14;;;;;;;38.77;18.23;;;;;;;;;;5978147;24;20030;-73
2024/02/26 06:35:39;;;;;;;41.43;19.43;;;;;;;;;;5953473;24;20012;-74
2024/02/26 06:38:05;;;;;;;41.70;17.17;;;;;;;;;;5952839;24;20019;-69
2024/02/26 06:40:30;;;;;;;36.10;16.60;;;;;;;;;;5978169;24;20043;-70
2024/02/26 06:42:56;;;;;;;38.07;16.97;;;;;;;;;;5976687;24;20423;-69
2024/02/26 06:45:22;;;;;;;35.50;16.40;;;;;;;;;;5951058;24;20478;-70
2024/02/26 06:47:48;;;;;;;35.83;16.97;;;;;;;;;;5951812;24;20042;-70
2024/02/26 06:50:13;;;;;;;39.73;16.37;;;;;;;;;;5977605;23;20009;-72
2024/02/26 06:52:39;;;;;;;42.17;17.07;;;;;;;;;;5941852;24;20046;-69
2024/02/26 06:55:08;;;;;;;35.83;16.47;;;;;;;;;;5974529;24;20027;-70
2024/02/26 06:57:34;;;;;;;37.53;17.37;;;;;;;;;;5977465;24;20004;-71
2024/02/26 06:59:59;;;;;;;37.47;16.60;;;;;;;;;;5948359;24;20012;-71
2024/02/26 07:02:25;;;;;;;36.93;17.37;;;;;;;;;;5974095;24;20017;-70
2024/02/26 07:04:51;;;;;;;37.60;16.77;;;;;;;;;;5946817;24;20004;-71
2024/02/26 07:07:18;;;;;;;46.17;18.77;;;;;;;;;;5955808;24;20008;-70
2024/02/26 07:09:44;;;;;;;43.23;18.40;;;;;;;;;;5957551;24;20046;-68
2024/02/26 07:12:10;;;;;;;36.57;18.53;;;;;;;;;;5954845;24;20008;-70
2024/02/26 07:14:37;;;;;;;44.10;18.47;;;;;;;;;;5980724;24;20067;-70
2024/02/26 07:17:03;;;;;;;46.40;18.03;;;;;;;;;;5956149;24;20024;-69
2024/02/26 07:19:29;;;;;;;37.27;17.10;;;;;;;;;;5933022;24;20016;-68
2024/02/26 07:21:57;;;;;;;41.30;17.83;;;;;;;;;;5954769;24;20039;-69
2024/02/26 07:24:23;;;;;;;44.67;18.67;;;;;;;;;;5956201;24;20012;-69
2024/02/26 07:26:49;;;;;;;43.17;18.90;;;;;;;;;;5956804;24;20022;-70
2024/02/26 07:29:15;;;;;;;46.90;18.83;;;;;;;;;;5953626;24;20063;-70
2024/02/26 07:31:40;;;;;;;49.93;21.03;;;;;;;;;;5954671;24;20027;-69
2024/02/26 07:34:08;;;;;;;40.83;18.93;;;;;;;;;;5952611;24;20015;-71
2024/02/26 07:36:34;;;;;;;42.97;19.43;;;;;;;;;;5954068;24;20083;-71
2024/02/26 07:39:01;;;;;;;44.03;18.87;;;;;;;;;;5954560;24;20133;-72
2024/02/26 07:41:27;;;;;;;48.60;18.60;;;;;;;;;;5954628;24;20015;-69
2024/02/26 07:43:53;;;;;;;44.17;18.47;;;;;;;;;;5955348;24;20027;-69
2024/02/26 07:46:19;;;;;;;48.13;18.80;;;;;;;;;;5955255;24;20517;-68
2024/02/26 07:48:45;;;;;;;47.43;19.60;;;;;;;;;;5979897;24;20008;-70
2024/02/26 07:51:14;;;;;;;36.30;18.13;;;;;;;;;;5928313;23;20122;-70
2024/02/26 07:53:40;;;;;;;40.87;17.67;;;;;;;;;;5952634;24;20004;-70
2024/02/26 07:56:07;;;;;;;46.60;19.83;;;;;;;;;;5932812;24;20023;-70
2024/02/26 07:58:33;;;;;;;42.97;19.13;;;;;;;;;;5930337;24;20353;-70
2024/02/26 08:00:59;;;;;;;54.00;19.93;;;;;;;;;;5977048;24;20008;-72
2024/02/26 08:03:26;;;;;;;45.70;19.27;;;;;;;;;;5948593;24;20019;-70
2024/02/26 08:05:52;;;;;;;45.17;19.63;;;;;;;;;;5955023;24;20333;-70
2024/02/26 08:08:19;;;;;;;40.33;19.93;;;;;;;;;;5931392;24;20716;-71
2024/02/26 08:10:46;;;;;;;41.13;19.20;;;;;;;;;;5954290;24;20071;-71
2024/02/26 08:13:13;;;;;;;43.60;18.27;;;;;;;;;;5953989;24;20602;-71
2024/02/26 08:15:41;;;;;;;49.37;20.20;;;;;;;;;;5956519;24;20024;-71
2024/02/26 08:18:08;;;;;;;40.60;17.80;;;;;;;;;;5954120;24;20032;-71
2024/02/26 08:20:34;;;;;;;43.17;18.60;;;;;;;;;;5931959;24;20012;-71
2024/02/26 08:23:00;;;;;;;35.70;16.37;;;;;;;;;;5955878;24;20011;-70
2024/02/26 08:25:26;;;;;;;42.90;19.50;;;;;;;;;;5980800;24;20004;-69
2024/02/26 08:27:56;;;;;;;39.33;17.07;;;;;;;;;;5979289;24;20087;-72
2024/02/26 08:30:21;;;;;;;43.43;19.83;;;;;;;;;;5973480;24;20027;-69
2024/02/26 08:32:48;;;;;;;42.33;18.50;;;;;;;;;;5954793;24;20460;-70
2024/02/26 08:35:16;;;;;;;41.43;18.67;;;;;;;;;;5953311;24;20042;-71
2024/02/26 08:37:46;;;;;;;44.23;19.93;;;;;;;;;;5953440;24;20478;-71
2024/02/26 08:40:12;;;;;;;48.07;17.97;;;;;;;;;;5952021;24;20036;-70
2024/02/26 08:42:38;;;;;;;37.80;18.47;;;;;;;;;;5975932;24;20096;-71
2024/02/26 08:45:04;;;;;;;44.30;18.80;;;;;;;;;;5930839;24;20445;-68
2024/02/26 08:47:33;;;;;;;43.40;19.43;;;;;;;;;;5954133;24;20008;-70
2024/02/26 08:49:58;;;;;;;49.83;18.43;;;;;;;;;;5950291;24;20012;-70
2024/02/26 08:52:24;;;;;;;40.53;18.00;;;;;;;;;;5982429;23;20367;-73
2024/02/26 08:54:50;;;;;;;39.23;15.57;;;;;;;;;;5980242;24;20051;-71
2024/02/26 08:57:17;;;;;;;36.50;17.03;;;;;;;;;;5979614;24;20012;-71
2024/02/26 08:59:42;;;;;;;39.40;17.17;;;;;;;;;;5978657;24;20131;-69
2024/02/26 09:02:09;;;;;;;34.60;15.93;;;;;;;;;;5976837;24;20030;-70
2024/02/26 09:04:35;;;;;;;42.53;18.67;;;;;;;;;;5979809;24;20041;-72
2024/02/26 09:07:03;;;;;;;38.20;17.77;;;;;;;;;;5980128;24;20633;-71
2024/02/26 09:09:29;;;;;;;40.90;18.73;;;;;;;;;;5983847;24;20147;-69
2024/02/26 09:11:56;;;;;;;38.00;17.43;;;;;;;;;;5957512;24;20015;-72
2024/02/26 09:14:23;;;;;;;35.53;16.77;;;;;;;;;;5957308;24;20012;-70
2024/02/26 09:16:50;;;;;;;39.43;18.27;;;;;;;;;;5980662;24;20008;-70
2024/02/26 09:19:17;;;;;;;40.83;16.90;;;;;;;;;;5979944;24;20079;-70
2024/02/26 09:21:48;;;;;;;34.83;15.80;;;;;;;;;;5957325;24;20032;-70
2024/02/26 09:24:14;;;;;;;35.13;16.57;;;;;;;;;;5931293;24;20020;-70
2024/02/26 09:26:40;;;;;;;39.00;16.53;;;;;;;;;;5977670;24;20015;-70
2024/02/26 09:29:08;;;;;;;31.00;14.97;;;;;;;;;;5954213;24;20012;-72
2024/02/26 09:31:34;;;;;;;38.10;16.57;;;;;;;;;;5953741;24;20428;-71
2024/02/26 09:34:00;;;;;;;34.50;15.67;;;;;;;;;;5954313;24;20092;-72
2024/02/26 09:36:25;;;;;;;36.77;18.07;;;;;;;;;;5950105;24;20043;-69
2024/02/26 09:38:52;;;;;;;38.30;16.77;;;;;;;;;;5955934;24;20027;-69
2024/02/26 09:41:18;;;;;;;35.10;15.40;;;;;;;;;;5978667;24;20018;-72
2024/02/26 09:43:48;;;;;;;31.70;13.73;;;;;;;;;;5952290;24;20016;-69
2024/02/26 09:46:15;;;;;;;36.97;15.97;;;;;;;;;;5951824;24;20012;-70
2024/02/26 09:48:44;;;;;;;30.47;15.73;;;;;;;;;;5953612;24;20012;-71
2024/02/26 09:51:14;;;;;;;32.60;15.13;;;;;;;;;;5929965;24;20099;-69
2024/02/26 09:53:43;;;;;;;39.30;16.50;;;;;;;;;;5977922;23;20017;-71
2024/02/26 09:56:12;;;;;;;36.23;16.10;;;;;;;;;;5971974;24;20012;-71
2024/02/26 09:58:39;;;;;;;32.87;14.83;;;;;;;;;;5952257;24;20016;-72
2024/02/26 10:01:11;;;;;;;35.50;14.10;;;;;;;;;;5976748;24;20115;-71
2024/02/26 10:03:42;;;;;;;29.67;13.55;;;;;;;;;;5973861;24;20015;-71
2024/02/26 10:06:12;;;;;;;29.40;14.23;;;;;;;;;;5948659;24;20012;-71
2024/02/26 10:08:43;;;;;;;32.70;15.20;;;;;;;;;;5978195;24;20083;-70
2024/02/26 10:11:10;;;;;;;33.33;14.83;;;;;;;;;;5978731;24;20477;-72
2024/02/26 10:13:38;;;;;;;31.17;14.17;;;;;;;;;;5955649;24;20004;-71
2024/02/26 10:16:04;;;;;;;28.33;14.07;;;;;;;;;;5950701;24;20016;-71
2024/02/26 10:19:05;;;;;;;29.30;13.97;;;;;;;;;;5953374;24;20320;-73
2024/02/26 10:21:31;;;;;;;32.63;13.80;;;;;;;;;;5920530;24;20009;-72
2024/02/26 10:23:56;;;;;;;26.30;12.43;;;;;;;;;;5966501;24;20008;-71
2024/02/26 10:26:48;;;;;;;25.02;12.05;;;;;;;;;;5955258;24;20012;-70
2024/02/26 10:29:18;;;;;;;27.63;13.00;;;;;;;;;;5977282;24;20008;-71
2024/02/26 10:31:51;;;;;;;22.63;11.73;;;;;;;;;;5974101;24;20233;-70
2024/02/26 10:34:17;;;;;;;21.70;12.00;;;;;;;;;;5952442;24;20084;-72
2024/02/26 10:36:46;;;;;;;31.92;11.65;;;;;;;;;;5949604;24;20415;-71
2024/02/26 10:39:13;;;;;;;28.42;13.43;;;;;;;;;;5931358;24;20447;-71
2024/02/26 10:41:41;;;;;;;26.58;13.18;;;;;;;;;;5953865;24;20453;-72
2024/02/26 10:44:12;;;;;;;25.42;13.77;;;;;;;;;;5952858;24;20007;-68
2024/02/26 10:46:41;;;;;;;23.83;12.52;;;;;;;;;;5975300;24;20031;-71
2024/02/26 10:49:14;;;;;;;27.63;13.35;;;;;;;;;;5953412;24;20104;-73
2024/02/26 10:51:43;;;;;;;26.30;13.85;;;;;;;;;;5977825;23;20028;-76
2024/02/26 10:54:15;;;;;;;31.02;15.10;;;;;;;;;;5953359;24;20038;-71
2024/02/26 10:56:44;;;;;;;29.02;15.38;;;;;;;;;;5977433;24;20078;-72
2024/02/26 10:59:11;;;;;;;34.45;16.92;;;;;;;;;;5977674;24;20365;-72
2024/02/26 11:01:41;;;;;;;37.33;17.20;;;;;;;;;;5978388;24;20048;-71
2024/02/26 11:04:10;;;;;;;36.78;19.23;;;;;;;;;;5929515;24;20024;-71
2024/02/26 11:06:37;;;;;;;37.80;17.17;;;;;;;;;;5951336;24;20015;-71
2024/02/26 11:09:03;;;;;;;35.90;17.08;;;;;;;;;;5953660;24;20008;-70
2024/02/26 11:11:34;;;;;;;22.27;12.88;;;;;;;;;;5954265;24;20370;-73
2024/02/26 11:14:03;;;;;;;30.98;15.10;;;;;;;;;;5930765;24;20111;-71
2024/02/26 11:16:30;;;;;;;30.67;15.88;;;;;;;;;;5951683;24;20427;-70
2024/02/26 11:18:56;;;;;;;39.78;16.45;;;;;;;;;;5931782;24;20012;-69
2024/02/26 11:21:38;;;;;;;35.55;17.23;;;;;;;;;;5931147;24;20737;-71
2024/02/26 11:24:06;;;;;;;38.22;19.17;;;;;;;;;;5972898;24;20016;-71
2024/02/26 11:26:37;;;;;;;33.00;15.32;;;;;;;;;;5950711;24;20088;-72
2024/02/26 11:29:05;;;;;;;32.20;16.15;;;;;;;;;;5979867;24;20004;-70
2024/02/26 11:31:31;;;;;;;32.35;14.98;;;;;;;;;;5931342;24;20027;-71
2024/02/26 11:33:57;;;;;;;36.35;15.07;;;;;;;;;;5955682;24;20012;-69
2024/02/26 11:36:25;;;;;;;27.70;15.57;;;;;;;;;;5953831;24;20095;-69
2024/02/26 11:38:52;;;;;;;32.22;15.23;;;;;;;;;;5978605;24;20008;-74
2024/02/26 11:41:18;;;;;;;25.42;13.63;;;;;;;;;;5975201;24;20016;-71
2024/02/26 11:44:06;;;;;;;28.15;14.00;;;;;;;;;;5931009;24;20012;-69
2024/02/26 11:46:38;;;;;;;33.53;16.90;;;;;;;;;;5977026;24;20028;-69
2024/02/26 11:49:24;;;;;;;;;;;;;;;;;;5954537;24;20015;-70
2024/02/26 11:52:00;;;;;;;27.13;12.65;;;;;;;;;;5956021;23;20324;-69
2024/02/26 11:54:59;;;;;;;31.65;14.48;;;;;;;;;;5951206;24;20024;-71
2024/02/26 11:57:29;;;;;;;31.08;14.00;;;;;;;;;;5929111;24;20024;-69
2024/02/26 11:59:57;;;;;;;26.77;13.48;;;;;;;;;;5935217;24;20013;-70
2024/02/26 12:02:59;;;;;;;35.15;15.32;;;;;;;;;;5958601;24;20012;-70
2024/02/26 12:05:28;;;;;;;33.63;13.70;;;;;;;;;;5959548;24;20341;-69
2024/02/26 12:08:00;;;;;;;29.88;14.80;;;;;;;;;;5959331;24;20308;-70
2024/02/26 12:10:35;;;;;;;46.00;18.75;;;;;;;;;;5936491;24;20019;-71
2024/02/26 12:13:13;;;;;;;31.75;16.13;;;;;;;;;;5983741;24;20004;-70
2024/02/26 12:15:43;;;;;;;28.73;15.27;;;;;;;;;;5952919;24;20031;-69
2024/02/26 12:18:18;;;;;;;28.48;14.75;;;;;;;;;;5954464;24;20008;-69
2024/02/26 12:20:46;;;;;;;27.35;15.02;;;;;;;;;;5952397;24;20086;-69
2024/02/26 12:23:19;;;;;;;33.80;15.63;;;;;;;;;;5931093;24;20104;-71
2024/02/26 12:25:48;;;;;;;33.72;14.98;;;;;;;;;;5976429;24;20111;-73
2024/02/26 12:28:15;;;;;;;32.70;15.95;;;;;;;;;;5981648;24;20134;-70
2024/02/26 12:30:41;;;;;;;41.17;20.10;;;;;;;;;;5935046;24;20020;-71
2024/02/26 12:33:08;;;;;;;25.83;13.40;;;;;;;;;;5930767;24;20012;-72
2024/02/26 12:35:35;;;;;;;35.70;16.70;;;;;;;;;;5979881;24;20008;-71
2024/02/26 12:38:03;;;;;;;37.25;16.55;;;;;;;;;;5957800;24;20015;-72
2024/02/26 12:40:29;;;;;;;35.35;16.33;;;;;;;;;;5980689;24;20011;-74
2024/02/26 12:42:58;;;;;;;33.67;16.67;;;;;;;;;;5956488;24;20023;-70
2024/02/26 12:45:26;;;;;;;26.20;14.45;;;;;;;;;;5979652;24;20503;-72
2024/02/26 12:47:53;;;;;;;30.70;15.68;;;;;;;;;;5974083;24;20004;-73
2024/02/26 12:50:19;;;;;;;34.33;16.20;;;;;;;;;;5933389;24;20012;-74
2024/02/26 12:52:48;;;;;;;32.70;15.02;;;;;;;;;;5981661;23;20030;-72
2024/02/26 12:55:19;;;;;;;32.90;15.48;;;;;;;;;;5955730;24;20027;-71
2024/02/26 12:57:48;;;;;;;33.55;14.82;;;;;;;;;;5955157;24;20060;-71
2024/02/26 13:00:22;;;;;;;28.38;14.43;;;;;;;;;;5955668;24;20083;-71
2024/02/26 13:02:49;;;;;;;29.13;14.02;;;;;;;;;;5977770;24;20064;-75
2024/02/26 13:05:16;;;;;;;34.70;14.55;;;;;;;;;;5956818;24;20008;-73
2024/02/26 13:07:44;;;;;;;29.15;14.73;;;;;;;;;;5958438;24;20060;-72
2024/02/26 13:10:14;;;;;;;31.20;15.85;;;;;;;;;;5958008;24;20008;-74
2024/02/26 13:12:47;;;;;;;30.77;14.43;;;;;;;;;;5981981;24;20004;-74
2024/02/26 13:15:19;;;;;;;27.10;13.43;;;;;;;;;;5957773;24;20453;-74
2024/02/26 13:17:49;;;;;;;38.95;15.02;;;;;;;;;;5957670;24;20058;-74
2024/02/26 13:20:29;;;;;;;30.13;14.73;;;;;;;;;;5934029;24;20023;-72
2024/02/26 13:23:07;;;;;;;29.02;14.07;;;;;;;;;;5982593;24;20035;-71
2024/02/26 13:25:33;;;;;;;25.92;13.20;;;;;;;;;;5958514;24;20362;-75
2024/02/26 13:28:16;;;;;;;32.50;14.43;;;;;;;;;;5980846;24;20335;-71
2024/02/26 13:30:50;;;;;;;29.98;14.45;;;;;;;;;;5957473;24;20012;-72
2024/02/26 13:33:16;;;;;;;51.83;25.60;;;;;;;;;;5935804;24;20008;-73
2024/02/26 13:35:43;;;;;;;30.73;17.45;;;;;;;;;;5981790;24;20008;-72
2024/02/26 13:38:12;;;;;;;32.78;15.88;;;;;;;;;;5956026;24;20016;-73
2024/02/26 13:40:39;;;;;;;27.00;13.98;;;;;;;;;;5958718;24;20469;-73
2024/02/26 13:43:05;;;;;;;29.13;14.27;;;;;;;;;;5957612;24;20020;-72
2024/02/26 13:45:33;;;;;;;30.27;13.85;;;;;;;;;;5964002;24;20012;-72
2024/02/26 13:48:04;;;;;;;26.90;13.63;;;;;;;;;;5962703;24;20018;-70
2024/02/26 13:50:30;;;;;;;29.67;13.80;;;;;;;;;;5982362;23;20012;-72
2024/02/26 13:53:00;;;;;;;27.27;14.57;;;;;;;;;;5981872;23;20020;-72
2024/02/26 13:55:28;;;;;;;31.73;14.93;;;;;;;;;;5956942;24;20008;-71
2024/02/26 13:57:58;;;;;;;28.65;14.95;;;;;;;;;;5956535;24;20016;-72
2024/02/26 14:00:26;;;;;;;29.95;14.93;;;;;;;;;;5956227;24;20098;-75
2024/02/26 14:02:52;;;;;;;28.60;13.60;;;;;;;;;;5979872;24;20079;-73
2024/02/26 14:05:19;;;;;;;30.08;15.07;;;;;;;;;;5981509;24;20091;-74
2024/02/26 14:07:45;;;;;;;32.35;14.90;;;;;;;;;;5935076;24;20040;-73
2024/02/26 14:10:13;;;;;;;26.40;14.38;;;;;;;;;;5982080;24;20011;-72
2024/02/26 14:12:39;;;;;;;27.77;14.43;;;;;;;;;;5981196;24;20064;-72
2024/02/26 14:15:10;;;;;;;29.65;14.40;;;;;;;;;;5980217;24;20047;-74
2024/02/26 14:17:35;;;;;;;26.52;14.27;;;;;;;;;;5956290;24;20403;-74
2024/02/26 14:20:03;;;;;;;28.70;15.15;;;;;;;;;;5956848;24;20046;-72